createdAt,value
2024-01-06T00:02:12.786Z,5.07
2024-01-06T00:04:40.568Z,5.05
2024-01-06T00:07:08.210Z,4.95
2024-01-06T00:09:35.917Z,5.00
2024-01-06T00:12:04.148Z,4.89
2024-01-06T00:14:31.794Z,4.94
2024-01-06T00:16:59.394Z,4.97
2024-01-06T00:19:28.562Z,4.99
2024-01-06T00:21:56.330Z,4.88
2024-01-06T00:24:24.028Z,5.08
2024-01-06T00:26:51.763Z,4.92
2024-01-06T00:29:19.420Z,4.95
2024-01-06T00:31:47.232Z,4.86
2024-01-06T00:34:15.020Z,4.77
2024-01-06T00:36:44.045Z,4.78
2024-01-06T00:39:14.013Z,4.71
2024-01-06T00:41:41.736Z,4.79
2024-01-06T00:44:09.381Z,4.81
2024-01-06T00:46:36.976Z,4.69
2024-01-06T00:49:05.078Z,4.65
2024-01-06T00:51:32.953Z,4.64
2024-01-06T00:54:04.636Z,4.62
2024-01-06T00:56:32.380Z,4.56
2024-01-06T00:59:00.066Z,4.63
2024-01-06T01:01:27.770Z,4.58
2024-01-06T01:03:55.684Z,4.67
2024-01-06T01:06:25.872Z,4.72
2024-01-06T01:08:53.591Z,4.78
2024-01-06T01:11:26.266Z,5.02
2024-01-06T01:13:54.046Z,5.06
2024-01-06T01:16:22.228Z,5.15
2024-01-06T01:18:50.600Z,5.26
2024-01-06T01:21:19.511Z,5.31
2024-01-06T01:23:47.549Z,5.37
2024-01-06T01:26:16.174Z,5.38
2024-01-06T01:28:45.782Z,5.45
2024-01-06T01:31:15.441Z,5.51
2024-01-06T01:33:43.462Z,5.58
2024-01-06T01:36:11.285Z,5.58
2024-01-06T01:38:38.908Z,5.56
2024-01-06T01:41:06.539Z,5.55
2024-01-06T01:43:34.294Z,5.61
2024-01-06T01:46:03.958Z,5.60
2024-01-06T01:48:35.113Z,5.54
2024-01-06T01:51:05.543Z,5.55
2024-01-06T01:53:34.576Z,5.58
2024-01-06T01:56:06.266Z,5.67
2024-01-06T01:58:34.052Z,5.59
2024-01-06T02:01:04.262Z,5.68
2024-01-06T02:03:35.240Z,5.68
2024-01-06T02:06:04.110Z,5.69
2024-01-06T02:08:31.828Z,5.72
2024-01-06T02:10:59.489Z,5.77
2024-01-06T02:13:35.267Z,5.84
2024-01-06T02:16:06.576Z,5.84
2024-01-06T02:18:35.434Z,5.84
2024-01-06T02:21:05.699Z,5.78
2024-01-06T02:23:38.279Z,5.71
2024-01-06T02:26:08.054Z,5.85
2024-01-06T02:28:37.803Z,5.79
2024-01-06T02:31:05.774Z,5.84
2024-01-06T02:33:33.963Z,5.89
2024-01-06T02:36:01.677Z,5.96
2024-01-06T02:38:29.532Z,5.96
2024-01-06T02:40:58.619Z,5.88
2024-01-06T02:43:26.331Z,5.86
2024-01-06T02:45:54.032Z,5.90
2024-01-06T02:48:21.920Z,6.01
2024-01-06T02:50:49.724Z,6.07
2024-01-06T02:53:17.472Z,6.08
2024-01-06T02:55:46.487Z,6.02
2024-01-06T02:58:15.469Z,6.11
2024-01-06T03:00:43.215Z,6.22
2024-01-06T03:03:11.024Z,6.26
2024-01-06T03:05:38.989Z,6.14
2024-01-06T03:08:07.480Z,6.19
2024-01-06T03:10:37.413Z,6.24
2024-01-06T03:13:05.353Z,6.33
2024-01-06T03:15:34.457Z,6.31
2024-01-06T03:18:02.114Z,6.22
2024-01-06T03:20:29.848Z,6.26
2024-01-06T03:22:57.502Z,6.32
2024-01-06T03:25:25.059Z,6.20
2024-01-06T03:27:52.752Z,6.13
2024-01-06T03:30:20.674Z,6.20
2024-01-06T03:32:53.691Z,6.19
2024-01-06T03:35:21.426Z,6.16
2024-01-06T03:37:49.103Z,6.18
2024-01-06T03:40:16.858Z,6.07
2024-01-06T03:42:44.617Z,6.06
2024-01-06T03:45:12.418Z,6.04
2024-01-06T03:47:40.202Z,6.12
2024-01-06T03:50:09.969Z,6.01
2024-01-06T03:52:39.623Z,5.99
2024-01-06T03:55:08.196Z,5.93
2024-01-06T03:57:35.810Z,5.99
2024-01-06T04:00:03.925Z,6.01
2024-01-06T04:02:31.527Z,5.98
2024-01-06T04:04:59.174Z,5.98
2024-01-06T04:07:28.208Z,5.93
2024-01-06T04:09:56.038Z,6.08
2024-01-06T04:12:23.848Z,5.97
2024-01-06T04:14:51.714Z,6.06
2024-01-06T04:17:19.451Z,6.00
2024-01-06T04:19:47.244Z,6.07
2024-01-06T04:22:15.277Z,6.13
2024-01-06T04:24:44.416Z,6.12
2024-01-06T04:27:13.453Z,6.03
2024-01-06T04:29:41.542Z,6.07
2024-01-06T04:32:09.913Z,6.12
2024-01-06T04:34:37.713Z,6.19
2024-01-06T04:37:05.648Z,6.12
2024-01-06T04:39:35.942Z,6.11
2024-01-06T04:42:07.280Z,6.24
2024-01-06T04:44:35.476Z,6.18
2024-01-06T04:47:03.310Z,6.18
2024-01-06T04:49:35.018Z,6.13
2024-01-06T04:52:03.001Z,6.06
2024-01-06T04:54:30.781Z,6.08
2024-01-06T04:56:58.535Z,6.11
2024-01-06T04:59:27.740Z,6.29
2024-01-06T05:01:57.964Z,6.21
2024-01-06T05:04:25.765Z,6.23
2024-01-06T05:06:54.439Z,6.10
2024-01-06T05:09:22.217Z,5.97
2024-01-06T05:11:49.915Z,6.04
2024-01-06T05:14:17.578Z,6.01
2024-01-06T05:16:47.709Z,5.96
2024-01-06T05:19:20.611Z,5.88
2024-01-06T05:21:49.123Z,5.99
2024-01-06T05:24:16.812Z,5.97
2024-01-06T05:26:44.562Z,5.96
2024-01-06T05:29:12.271Z,5.93
2024-01-06T05:31:40.017Z,5.97
2024-01-06T05:34:09.133Z,6.02
2024-01-06T05:36:37.365Z,5.97
2024-01-06T05:39:05.587Z,5.85
2024-01-06T05:41:39.565Z,5.87
2024-01-06T05:44:07.776Z,5.81
2024-01-06T05:46:36.819Z,5.86
2024-01-06T05:49:05.714Z,5.76
2024-01-06T05:51:35.318Z,5.95
2024-01-06T05:54:03.854Z,5.83
2024-01-06T05:56:31.635Z,5.80
2024-01-06T05:58:59.249Z,5.77
2024-01-06T06:01:26.921Z,6.03
2024-01-06T06:03:54.596Z,6.00
2024-01-06T06:06:23.609Z,5.94
2024-01-06T06:08:52.676Z,5.92
2024-01-06T06:11:20.403Z,6.03
2024-01-06T06:13:48.105Z,6.06
2024-01-06T06:16:16.938Z,6.11
2024-01-06T06:18:44.996Z,6.09
2024-01-06T06:21:12.693Z,6.01
2024-01-06T06:23:40.409Z,6.12
2024-01-06T06:26:09.954Z,6.07
2024-01-06T06:28:37.864Z,6.06
2024-01-06T06:31:05.757Z,6.14
2024-01-06T06:33:34.576Z,6.05
2024-01-06T06:36:02.927Z,5.99
2024-01-06T06:38:30.637Z,5.94
2024-01-06T06:40:58.581Z,6.01
2024-01-06T06:43:27.610Z,6.03
2024-01-06T06:45:56.639Z,6.18
2024-01-06T06:48:24.470Z,6.10
2024-01-06T06:50:52.044Z,6.08
2024-01-06T06:53:19.682Z,6.11
2024-01-06T06:55:48.147Z,6.21
2024-01-06T06:58:15.912Z,6.32
2024-01-06T07:00:45.174Z,6.24
2024-01-06T07:03:12.894Z,6.16
2024-01-06T07:05:40.622Z,6.25
2024-01-06T07:08:08.779Z,6.10
2024-01-06T07:10:36.675Z,6.11
2024-01-06T07:13:04.648Z,6.06
2024-01-06T07:15:32.351Z,6.09
2024-01-06T07:18:01.585Z,6.00
2024-01-06T07:20:29.448Z,5.93
2024-01-06T07:22:57.194Z,5.90
2024-01-06T07:25:24.793Z,5.98
2024-01-06T07:27:55.343Z,6.07
2024-01-06T07:30:23.579Z,6.03
2024-01-06T07:32:53.141Z,6.21
2024-01-06T07:35:22.519Z,6.14
2024-01-06T07:37:50.332Z,6.15
2024-01-06T07:40:18.400Z,6.08
2024-01-06T07:42:46.263Z,6.05
2024-01-06T07:45:14.630Z,6.00
2024-01-06T07:47:43.099Z,6.08
2024-01-06T07:50:11.553Z,6.00
2024-01-06T07:52:40.564Z,6.10
2024-01-06T07:55:09.072Z,6.24
2024-01-06T07:57:36.813Z,6.12
2024-01-06T08:00:06.545Z,6.25
2024-01-06T08:02:35.659Z,6.35
2024-01-06T08:05:03.928Z,6.33
2024-01-06T08:07:31.629Z,6.35
2024-01-06T08:10:01.043Z,6.57
2024-01-06T08:12:28.877Z,6.61
2024-01-06T08:14:56.575Z,6.62
2024-01-06T08:17:24.236Z,6.74
2024-01-06T08:19:52.187Z,6.74
2024-01-06T08:22:19.864Z,6.61
2024-01-06T08:24:48.354Z,6.69
2024-01-06T08:27:17.464Z,6.60
2024-01-06T08:29:45.350Z,6.70
2024-01-06T08:32:17.158Z,6.79
2024-01-06T08:34:46.488Z,6.74
2024-01-06T08:37:14.321Z,6.60
2024-01-06T08:39:42.218Z,6.59
2024-01-06T08:42:10.128Z,6.83
2024-01-06T08:44:39.251Z,6.76
2024-01-06T08:47:07.588Z,6.74
2024-01-06T08:49:35.494Z,6.85
2024-01-06T08:52:03.403Z,6.85
2024-01-06T08:54:31.123Z,6.86
2024-01-06T08:56:59.232Z,6.94
2024-01-06T08:59:26.903Z,7.03
2024-01-06T09:01:57.013Z,7.18
2024-01-06T09:04:24.827Z,7.14
2024-01-06T09:06:52.903Z,7.25
2024-01-06T09:09:20.747Z,7.36
2024-01-06T09:11:48.427Z,7.40
2024-01-06T09:14:16.201Z,7.22
2024-01-06T09:16:43.958Z,7.17
2024-01-06T09:19:13.556Z,7.08
2024-01-06T09:21:42.514Z,7.11
2024-01-06T09:24:10.181Z,6.89
2024-01-06T09:26:37.774Z,6.83
2024-01-06T09:29:05.577Z,6.87
2024-01-06T09:31:33.972Z,6.84
2024-01-06T09:34:03.645Z,6.85
2024-01-06T09:36:33.380Z,6.83
2024-01-06T09:39:01.027Z,6.93
2024-01-06T09:41:28.880Z,6.90
2024-01-06T09:43:56.499Z,6.96
2024-01-06T09:46:27.212Z,7.07
2024-01-06T09:48:56.386Z,7.11
2024-01-06T09:51:25.423Z,7.08
2024-01-06T09:54:00.515Z,7.10
2024-01-06T09:56:29.860Z,7.21
2024-01-06T09:58:58.072Z,7.06
2024-01-06T10:01:26.255Z,7.15
2024-01-06T10:03:54.222Z,7.24
2024-01-06T10:06:22.632Z,7.35
2024-01-06T10:08:51.801Z,7.32
2024-01-06T10:11:22.316Z,7.35
2024-01-06T10:13:51.563Z,7.34
2024-01-06T10:16:19.396Z,7.36
2024-01-06T10:18:51.450Z,7.37
2024-01-06T10:21:23.162Z,7.52
2024-01-06T10:23:51.609Z,7.54
2024-01-06T10:26:21.424Z,7.51
2024-01-06T10:28:50.501Z,7.52
2024-01-06T10:31:19.003Z,7.45
2024-01-06T10:33:47.609Z,7.36
2024-01-06T10:36:16.888Z,7.56
2024-01-06T10:38:46.269Z,7.57
2024-01-06T10:41:15.687Z,7.44
2024-01-06T10:43:45.223Z,7.51
2024-01-06T10:46:13.666Z,7.49
2024-01-06T10:48:44.731Z,7.56
2024-01-06T10:51:14.689Z,7.55
2024-01-06T10:53:42.806Z,7.87
2024-01-06T10:56:11.776Z,7.95
2024-01-06T10:58:44.750Z,8.17
2024-01-06T11:01:16.572Z,7.95
2024-01-06T11:03:50.695Z,7.99
2024-01-06T11:06:20.010Z,7.95
2024-01-06T11:09:00.947Z,7.86
2024-01-06T11:11:31.176Z,8.07
2024-01-06T11:14:26.908Z,7.99
2024-01-06T11:19:46.852Z,8.28
2024-01-06T11:22:21.948Z,8.37
2024-01-06T11:24:50.975Z,8.49
2024-01-06T11:27:24.151Z,8.50
2024-01-06T11:29:53.827Z,8.52
2024-01-06T11:32:28.254Z,8.75
2024-01-06T11:35:06.436Z,8.62
2024-01-06T11:37:39.064Z,8.59
2024-01-06T11:40:19.757Z,8.48
2024-01-06T11:42:48.414Z,8.66
2024-01-06T11:45:17.080Z,8.60
2024-01-06T11:47:50.629Z,8.63
2024-01-06T11:50:19.077Z,8.80
2024-01-06T11:52:47.327Z,9.06
2024-01-06T11:55:16.027Z,8.93
2024-01-06T11:57:43.642Z,9.05
2024-01-06T12:00:12.885Z,8.93
2024-01-06T12:02:40.642Z,9.02
2024-01-06T12:05:15.224Z,9.07
2024-01-06T12:07:43.480Z,9.18
2024-01-06T12:10:12.088Z,9.31
2024-01-06T12:12:40.302Z,9.28
2024-01-06T12:15:13.365Z,9.12
2024-01-06T12:17:42.789Z,9.08
2024-01-06T12:20:13.445Z,9.04
2024-01-06T12:22:41.290Z,8.92
2024-01-06T12:25:11.164Z,9.06
2024-01-06T12:27:44.539Z,9.08
2024-01-06T12:30:17.795Z,8.95
2024-01-06T12:32:46.750Z,9.08
2024-01-06T12:35:16.354Z,9.26
2024-01-06T12:37:47.376Z,9.27
2024-01-06T12:40:15.815Z,9.10
2024-01-06T12:42:43.594Z,9.09
2024-01-06T12:45:12.171Z,8.86
2024-01-06T12:47:40.421Z,8.94
2024-01-06T12:50:09.471Z,8.86
2024-01-06T12:52:40.006Z,8.90
2024-01-06T12:55:08.866Z,8.90
2024-01-06T12:57:37.334Z,9.03
2024-01-06T13:00:07.059Z,8.98
2024-01-06T13:02:34.696Z,9.01
2024-01-06T13:05:02.560Z,8.94
2024-01-06T13:07:29.408Z,8.92
2024-01-06T13:09:58.714Z,9.02
2024-01-06T13:12:26.356Z,9.04
2024-01-06T13:14:54.014Z,9.12
2024-01-06T13:17:21.724Z,9.07
2024-01-06T13:19:50.482Z,9.06
2024-01-06T13:22:21.467Z,8.76
2024-01-06T13:24:51.713Z,8.92
2024-01-06T13:27:22.577Z,8.95
2024-01-06T13:29:50.824Z,8.95
2024-01-06T13:32:20.173Z,8.93
2024-01-06T13:34:48.234Z,9.12
2024-01-06T13:37:16.579Z,9.12
2024-01-06T13:39:44.469Z,9.06
2024-01-06T13:42:12.217Z,8.90
2024-01-06T13:44:41.235Z,9.07
2024-01-06T13:47:09.007Z,9.09
2024-01-06T13:49:36.930Z,9.03
2024-01-06T13:52:04.937Z,8.97
2024-01-06T13:54:32.851Z,8.91
2024-01-06T13:57:00.628Z,8.94
2024-01-06T13:59:28.493Z,9.02
2024-01-06T14:01:57.647Z,9.03
2024-01-06T14:04:25.662Z,8.92
2024-01-06T14:06:57.122Z,8.76
2024-01-06T14:09:27.111Z,8.67
2024-01-06T14:11:55.515Z,8.68
2024-01-06T14:14:23.331Z,8.61
2024-01-06T14:16:51.599Z,8.55
2024-01-06T14:19:20.626Z,8.53
2024-01-06T14:21:48.410Z,8.51
2024-01-06T14:24:16.043Z,8.38
2024-01-06T14:26:43.787Z,8.40
2024-01-06T14:29:12.383Z,8.45
2024-01-06T14:31:40.206Z,8.48
2024-01-06T14:34:08.175Z,8.38
2024-01-06T14:36:37.510Z,8.34
2024-01-06T14:39:07.621Z,8.28
2024-01-06T14:41:35.310Z,8.26
2024-01-06T14:44:03.000Z,8.34
2024-01-06T14:46:32.403Z,8.33
2024-01-06T14:49:00.198Z,8.18
2024-01-06T14:51:28.164Z,8.01
2024-01-06T14:53:58.102Z,7.96
2024-01-06T14:56:27.152Z,7.83
2024-01-06T14:58:55.068Z,7.89
2024-01-06T15:01:22.815Z,7.73
2024-01-06T15:03:50.650Z,7.78
2024-01-06T15:06:19.005Z,7.61
2024-01-06T15:08:46.924Z,7.70
2024-01-06T15:11:16.397Z,7.79
2024-01-06T15:13:44.432Z,7.71
2024-01-06T15:16:12.217Z,7.61
2024-01-06T15:18:40.181Z,7.63
2024-01-06T15:21:11.838Z,7.67
2024-01-06T15:23:41.036Z,7.61
2024-01-06T15:26:08.705Z,7.65
2024-01-06T15:28:37.729Z,7.61
2024-01-06T15:31:05.725Z,7.56
2024-01-06T15:33:33.704Z,7.45
2024-01-06T15:36:02.384Z,7.35
2024-01-06T15:38:30.119Z,7.40
2024-01-06T15:40:57.770Z,7.42
2024-01-06T15:43:25.375Z,7.43
2024-01-06T15:45:54.976Z,7.36
2024-01-06T15:48:25.542Z,7.29
2024-01-06T15:50:54.046Z,7.23
2024-01-06T15:53:21.694Z,7.31
2024-01-06T15:55:49.406Z,7.24
2024-01-06T15:58:17.703Z,7.23
2024-01-06T16:00:45.670Z,7.11
2024-01-06T16:03:14.795Z,7.13
2024-01-06T16:05:43.873Z,7.17
2024-01-06T16:08:11.734Z,7.13
2024-01-06T16:10:39.414Z,7.17
2024-01-06T16:13:07.067Z,7.24
2024-01-06T16:15:34.737Z,7.21
2024-01-06T16:18:02.617Z,7.23
2024-01-06T16:20:32.584Z,7.21
2024-01-06T16:23:00.429Z,7.30
2024-01-06T16:25:28.092Z,7.23
2024-01-06T16:27:56.099Z,7.10
2024-01-06T16:30:24.013Z,7.13
2024-01-06T16:32:52.103Z,7.16
2024-01-06T16:35:19.985Z,7.27
2024-01-06T16:37:49.634Z,7.22
2024-01-06T16:40:17.239Z,7.07
2024-01-06T16:42:45.197Z,7.16
2024-01-06T16:45:14.377Z,7.06
2024-01-06T16:47:42.461Z,7.07
2024-01-06T16:50:10.876Z,7.06
2024-01-06T16:52:39.192Z,7.37
2024-01-06T16:55:09.574Z,7.36
2024-01-06T16:57:37.485Z,7.27
2024-01-06T17:00:06.851Z,7.34
2024-01-06T17:02:34.527Z,7.27
2024-01-06T17:05:02.569Z,7.39
2024-01-06T17:07:30.373Z,7.17
2024-01-06T17:10:00.286Z,7.10
2024-01-06T17:12:29.598Z,7.14
2024-01-06T17:14:57.253Z,7.11
2024-01-06T17:17:25.058Z,7.08
2024-01-06T17:19:54.417Z,7.18
2024-01-06T17:22:23.254Z,7.23
2024-01-06T17:24:52.863Z,7.03
2024-01-06T17:27:20.551Z,7.10
2024-01-06T17:29:50.744Z,6.92
2024-01-06T17:32:18.466Z,6.92
2024-01-06T17:34:46.294Z,6.97
2024-01-06T17:37:14.312Z,6.97
2024-01-06T17:39:42.764Z,6.94
2024-01-06T17:42:11.008Z,6.77
2024-01-06T17:44:45.496Z,6.89
2024-01-06T17:47:16.166Z,6.96
2024-01-06T17:49:43.894Z,6.86
2024-01-06T17:52:12.466Z,6.80
2024-01-06T17:54:40.509Z,6.90
2024-01-06T17:57:08.288Z,6.80
2024-01-06T17:59:35.886Z,6.80
2024-01-06T18:02:03.632Z,6.68
2024-01-06T18:04:32.705Z,6.97
2024-01-06T18:07:00.911Z,6.90
2024-01-06T18:09:29.135Z,6.75
2024-01-06T18:11:56.811Z,6.84
2024-01-06T18:14:24.833Z,6.72
2024-01-06T18:16:52.498Z,6.71
2024-01-06T18:19:20.452Z,6.84
2024-01-06T18:21:49.635Z,6.82
2024-01-06T18:24:17.289Z,6.93
2024-01-06T18:26:46.083Z,6.89
2024-01-06T18:29:19.025Z,6.77
2024-01-06T18:31:47.129Z,6.92
2024-01-06T18:34:15.123Z,7.01
2024-01-06T18:36:42.853Z,6.84
2024-01-06T18:39:11.876Z,6.83
2024-01-06T18:41:40.868Z,7.00
2024-01-06T18:44:10.933Z,6.95
2024-01-06T18:46:39.117Z,7.02
2024-01-06T18:49:07.785Z,6.92
2024-01-06T18:51:38.410Z,6.73
2024-01-06T18:54:06.387Z,6.80
2024-01-06T18:56:35.576Z,6.71
2024-01-06T18:59:03.441Z,6.52
2024-01-06T19:01:32.115Z,6.65
2024-01-06T19:04:00.264Z,6.72
2024-01-06T19:06:28.150Z,6.83
2024-01-06T19:08:55.793Z,6.74
2024-01-06T19:11:23.481Z,6.63
2024-01-06T19:13:52.546Z,6.70
2024-01-06T19:16:20.695Z,6.59
2024-01-06T19:18:48.517Z,6.62
2024-01-06T19:21:16.621Z,6.80
2024-01-06T19:23:45.680Z,6.76
2024-01-06T19:26:14.647Z,6.66
2024-01-06T19:28:42.329Z,6.65
2024-01-06T19:31:11.685Z,6.51
2024-01-06T19:33:39.621Z,6.68
2024-01-06T19:36:07.888Z,6.60
2024-01-06T19:38:36.481Z,6.67
2024-01-06T19:41:04.264Z,6.65
2024-01-06T19:43:33.153Z,6.69
2024-01-06T19:46:03.341Z,6.52
2024-01-06T19:48:32.784Z,6.52
2024-01-06T19:51:01.113Z,6.45
2024-01-06T19:53:29.935Z,6.50
2024-01-06T19:56:02.787Z,6.67
2024-01-06T19:58:30.563Z,6.63
2024-01-06T20:00:59.166Z,6.54
2024-01-06T20:03:27.403Z,6.71
2024-01-06T20:05:57.519Z,6.64
2024-01-06T20:08:25.519Z,6.54
2024-01-06T20:10:53.188Z,6.57
2024-01-06T20:13:21.339Z,6.56
2024-01-06T20:15:49.214Z,6.49
2024-01-06T20:18:17.736Z,6.76
2024-01-06T20:20:45.775Z,6.66
2024-01-06T20:23:14.939Z,6.58
2024-01-06T20:25:44.580Z,6.63
2024-01-06T20:28:13.465Z,6.59
2024-01-06T20:30:43.012Z,6.64
2024-01-06T20:33:11.453Z,6.57
2024-01-06T20:35:39.251Z,6.52
2024-01-06T20:38:07.496Z,6.44
2024-01-06T20:40:36.479Z,6.53
2024-01-06T20:43:04.448Z,6.55
2024-01-06T20:45:32.413Z,6.57
2024-01-06T20:48:00.257Z,6.63
2024-01-06T20:50:28.106Z,6.68
2024-01-06T20:52:55.857Z,6.58
2024-01-06T20:55:23.673Z,6.54
2024-01-06T20:57:53.764Z,6.42
2024-01-06T21:00:22.978Z,6.42
2024-01-06T21:02:51.209Z,6.48
2024-01-06T21:05:18.956Z,6.52
2024-01-06T21:07:48.660Z,6.55
2024-01-06T21:10:16.483Z,6.44
2024-01-06T21:12:44.373Z,6.50
2024-01-06T21:15:14.902Z,6.30
2024-01-06T21:17:42.934Z,6.53
2024-01-06T21:20:11.397Z,6.52
2024-01-06T21:22:39.218Z,6.50
2024-01-06T21:25:07.679Z,6.48
2024-01-06T21:27:36.041Z,6.44
2024-01-06T21:30:05.867Z,6.40
2024-01-06T21:32:35.432Z,6.41
2024-01-06T21:35:04.889Z,6.56
2024-01-06T21:37:33.466Z,6.38
2024-01-06T21:40:06.200Z,6.43
2024-01-06T21:42:34.841Z,6.32
2024-01-06T21:45:02.668Z,6.43
2024-01-06T21:47:30.465Z,6.43
2024-01-06T21:50:00.313Z,6.43
2024-01-06T21:52:27.938Z,6.45
2024-01-06T21:54:55.676Z,6.36
2024-01-06T21:57:23.394Z,6.30
2024-01-06T21:59:51.235Z,6.33
2024-01-06T22:02:19.043Z,6.31
2024-01-06T22:04:46.809Z,6.15
2024-01-06T22:07:15.783Z,6.20
2024-01-06T22:09:43.780Z,6.09
2024-01-06T22:12:14.081Z,6.09
2024-01-06T22:14:42.678Z,6.03
2024-01-06T22:17:10.437Z,6.05
2024-01-06T22:19:40.261Z,6.01
2024-01-06T22:22:08.379Z,5.88
2024-01-06T22:24:37.650Z,5.93
2024-01-06T22:27:06.476Z,5.79
2024-01-06T22:29:34.131Z,5.73
2024-01-06T22:32:01.767Z,5.68
2024-01-06T22:34:29.807Z,5.62
2024-01-06T22:36:58.585Z,5.49
2024-01-06T22:39:27.774Z,5.49
2024-01-06T22:41:56.958Z,5.50
2024-01-06T22:44:24.745Z,5.45
2024-01-06T22:46:51.471Z,5.46
2024-01-06T22:49:20.145Z,5.42
2024-01-06T22:51:48.176Z,5.39
2024-01-06T22:54:16.109Z,5.36
2024-01-06T22:56:44.241Z,5.34
2024-01-06T22:59:13.408Z,5.34
2024-01-06T23:01:41.233Z,5.24
2024-01-06T23:04:09.490Z,5.12
2024-01-06T23:06:37.588Z,5.25
2024-01-06T23:09:07.884Z,5.32
2024-01-06T23:11:35.903Z,5.36
2024-01-06T23:14:03.765Z,5.47
2024-01-06T23:16:32.841Z,5.41
2024-01-06T23:19:01.017Z,5.39
2024-01-06T23:21:28.910Z,5.29
2024-01-06T23:23:57.677Z,5.27
2024-01-06T23:26:25.402Z,5.36
2024-01-06T23:28:53.006Z,5.25
2024-01-06T23:31:21.062Z,5.35
2024-01-06T23:33:50.240Z,5.33
2024-01-06T23:36:17.991Z,5.15
2024-01-06T23:38:45.621Z,5.17
2024-01-06T23:41:14.858Z,5.21
2024-01-06T23:43:42.564Z,5.31
2024-01-06T23:46:10.374Z,5.31
2024-01-06T23:48:38.223Z,5.40
2024-01-06T23:51:07.294Z,5.33
2024-01-06T23:53:34.948Z,5.19
2024-01-06T23:56:03.515Z,5.19
2024-01-06T23:58:31.360Z,5.20
